Terminal Aerodrome Forecast
Issued by NWS

Home | Current Version | Previous Version | Text Only | Print | Product List | Glossary On
Versions: 1 2 3 4 5 6 7 8 9 10 11 12
000
FTUS46 KOTX 211120
TAFSFF
TAF
KSFF 211120Z 2112/2212 VRB03KT P6SM FEW100 FEW250
     FM211800 23007KT P6SM SCT100 BKN200
     FM220100 23004KT P6SM FEW120 BKN150
     FM220700 04002KT P6SM BKN150=

USA.gov is the U.S. government's official web portal to all federal, state and local government web resources and services.